Wudaoliang, China
Current Conditions -  °F | °C
As of 3:00 AM on Monday 22 Dec 2014 (Local Time) from ZLLL Reporting Station
Clear Clear  
Wind Chill: -7°   Ceiling: Unl
Heat Index:   Visibility: 4mi
Dew Point: -2°   Wind: 7mph
Humidity: 72%   Direction: 330°NNW
Pressure: 30.12"   Gusts: NA
Location:  35.22°N, 93.08°E
Report Text: ZLLL 211900Z 33003MPS 6000 NSC M15/M19 Q1020 NOSIG
Loading
Personal Weather Stations






























Interactive Weather Map New forecast layout! Learn more

10-Day Weather Forecast

Advertisements
Track Severe Weather on mobile